Time;durP1;ratioP1;P1;durP2;ratioP2;P2;SDS_P1;SDS_P2;PMS_P1;PMS_P2;Temp;Humidity;BMP_temperature;BMP_pressure;BME280_temperature;BME280_humidity;BME280_pressure;Samples;Min_cycle;Max_cycle;Signal;HPM_P1;HPM_P2
2022/11/26 00:02:58;;;;;;;61.13;51.90;;;;;;;;;;9973243;28;20121;-66
2022/11/26 00:07:56;;;;;;;61.85;52.03;;;;;;;;;;9989579;28;20057;-66
2022/11/26 00:12:50;;;;;;;62.58;52.08;;;;;;;;;;9972917;28;20070;-66
2022/11/26 00:17:43;;;;;;;64.15;49.30;;;;;;;;;;9989237;28;20046;-66
2022/11/26 00:22:46;;;;;;;58.47;47.53;;;;;;;;;;9989673;28;20058;-66
2022/11/26 00:27:39;;;;;;;60.45;50.10;;;;;;;;;;9986924;28;20043;-66
2022/11/26 00:32:34;;;;;;;60.95;48.33;;;;;;;;;;9988796;28;20066;-66
2022/11/26 00:37:58;;;;;;;57.03;47.97;;;;;;;;;;9989572;28;20096;-66
2022/11/26 00:42:53;;;;;;;58.95;46.72;;;;;;;;;;9920179;28;20096;-66
2022/11/26 00:47:54;;;;;;;56.63;48.50;;;;;;;;;;9989343;28;20057;-66
2022/11/26 00:52:50;;;;;;;57.90;49.25;;;;;;;;;;9988250;28;20053;-66
2022/11/26 00:57:44;;;;;;;57.53;47.95;;;;;;;;;;9971599;28;20058;-66
2022/11/26 01:02:38;;;;;;;61.50;51.15;;;;;;;;;;9988247;28;20113;-66
2022/11/26 01:07:32;;;;;;;96.43;75.63;;;;;;;;;;9988435;28;20055;-66
2022/11/26 01:12:26;;;;;;;97.40;74.97;;;;;;;;;;9988148;28;20066;-66
2022/11/26 01:17:20;;;;;;;143.60;100.07;;;;;;;;;;9988428;28;20465;-66
2022/11/26 01:22:34;;;;;;;122.97;84.00;;;;;;;;;;9988369;28;20508;-66
2022/11/26 01:27:28;;;;;;;153.07;99.93;;;;;;;;;;9986778;28;20046;-66
2022/11/26 01:32:22;;;;;;;125.10;83.45;;;;;;;;;;9987755;28;20081;-65
2022/11/26 01:37:21;;;;;;;201.48;117.45;;;;;;;;;;9987898;28;20051;-66
2022/11/26 01:42:40;;;;;;;196.77;117.15;;;;;;;;;;9987590;28;20055;-66
2022/11/26 01:47:34;;;;;;;104.40;71.47;;;;;;;;;;9960149;28;20568;-66
2022/11/26 01:52:28;;;;;;;109.97;71.15;;;;;;;;;;9987456;28;20078;-66
2022/11/26 01:58:01;;;;;;;76.07;59.35;;;;;;;;;;9987287;28;20050;-66
2022/11/26 02:03:15;;;;;;;74.95;59.22;;;;;;;;;;9986907;28;20050;-66
2022/11/26 02:08:09;;;;;;;74.85;57.13;;;;;;;;;;9987357;28;20101;-66
2022/11/26 02:13:03;;;;;;;87.05;64.75;;;;;;;;;;9964842;28;20053;-65
2022/11/26 02:18:19;;;;;;;215.70;120.22;;;;;;;;;;9977014;28;20046;-66
2022/11/26 02:23:37;;;;;;;298.15;160.88;;;;;;;;;;9992238;28;20046;-66
2022/11/26 02:28:44;;;;;;;465.95;260.77;;;;;;;;;;9993548;28;20112;-66
2022/11/26 02:34:10;;;;;;;400.53;210.53;;;;;;;;;;9992841;28;20058;-66
2022/11/26 02:39:11;;;;;;;395.45;211.27;;;;;;;;;;9981131;28;20153;-65
2022/11/26 02:44:05;;;;;;;258.00;163.02;;;;;;;;;;9991907;28;20065;-66
2022/11/26 02:48:59;;;;;;;106.68;87.78;;;;;;;;;;9993470;28;20061;-65
2022/11/26 02:53:53;;;;;;;67.53;52.83;;;;;;;;;;9992934;28;20130;-65
2022/11/26 02:58:48;;;;;;;71.90;58.95;;;;;;;;;;9993153;28;20054;-65
2022/11/26 03:03:48;;;;;;;70.97;59.00;;;;;;;;;;9992007;28;20046;-65
2022/11/26 03:08:44;;;;;;;62.97;54.85;;;;;;;;;;9974955;28;20445;-65
2022/11/26 03:13:36;;;;;;;65.38;54.28;;;;;;;;;;9991888;28;20133;-66
2022/11/26 03:18:29;;;;;;;67.68;54.88;;;;;;;;;;9974906;28;20482;-66
2022/11/26 03:23:22;;;;;;;74.93;52.88;;;;;;;;;;9991873;28;20061;-66
2022/11/26 03:28:15;;;;;;;65.57;54.20;;;;;;;;;;9991771;28;20058;-66
2022/11/26 03:33:10;;;;;;;66.22;52.85;;;;;;;;;;9991584;28;20138;-66
2022/11/26 03:38:04;;;;;;;62.50;53.78;;;;;;;;;;9991474;28;20058;-66
2022/11/26 03:42:58;;;;;;;68.40;52.35;;;;;;;;;;9991306;28;20104;-66
2022/11/26 03:47:53;;;;;;;62.67;53.95;;;;;;;;;;9991307;28;20059;-67
2022/11/26 03:52:47;;;;;;;64.95;56.55;;;;;;;;;;9990634;28;20564;-66
2022/11/26 03:57:41;;;;;;;65.72;53.58;;;;;;;;;;9990471;28;20069;-65
2022/11/26 04:02:35;;;;;;;65.72;53.38;;;;;;;;;;9990499;28;20058;-65
2022/11/26 04:07:29;;;;;;;70.38;53.15;;;;;;;;;;9990507;28;20054;-65
2022/11/26 04:12:23;;;;;;;68.40;55.60;;;;;;;;;;9989991;28;20093;-65
2022/11/26 04:17:18;;;;;;;67.68;54.58;;;;;;;;;;9990199;28;20042;-65
2022/11/26 04:22:12;;;;;;;63.42;52.08;;;;;;;;;;9989400;28;20061;-65
2022/11/26 04:27:07;;;;;;;68.43;54.35;;;;;;;;;;9989245;28;20046;-65
2022/11/26 04:32:00;;;;;;;67.60;53.15;;;;;;;;;;9988984;28;20133;-65
2022/11/26 04:36:54;;;;;;;72.80;55.47;;;;;;;;;;9988151;28;20047;-65
2022/11/26 04:41:48;;;;;;;69.65;55.00;;;;;;;;;;9985140;28;20061;-65
2022/11/26 04:46:42;;;;;;;91.85;65.78;;;;;;;;;;9989041;28;20050;-65
2022/11/26 04:51:37;;;;;;;133.57;89.72;;;;;;;;;;9988932;28;20054;-65
2022/11/26 04:56:31;;;;;;;141.57;90.38;;;;;;;;;;9988192;28;20081;-65
2022/11/26 05:01:25;;;;;;;188.57;112.45;;;;;;;;;;9987934;28;20050;-65
2022/11/26 05:06:19;;;;;;;98.70;66.05;;;;;;;;;;9987992;28;20067;-65
2022/11/26 05:11:12;;;;;;;178.68;101.65;;;;;;;;;;9987823;28;20070;-65
2022/11/26 05:16:06;;;;;;;380.85;171.38;;;;;;;;;;9988033;28;20073;-65
2022/11/26 05:21:00;;;;;;;260.40;128.77;;;;;;;;;;9985898;28;20050;-64
2022/11/26 05:25:55;;;;;;;126.93;83.78;;;;;;;;;;9987094;28;20490;-66
2022/11/26 05:30:49;;;;;;;67.88;54.78;;;;;;;;;;9986159;28;20465;-65
2022/11/26 05:35:42;;;;;;;68.85;56.40;;;;;;;;;;9986521;28;20046;-65
2022/11/26 05:40:36;;;;;;;69.28;54.97;;;;;;;;;;9969134;28;20054;-64
2022/11/26 05:45:31;;;;;;;63.53;48.97;;;;;;;;;;9986376;28;20133;-64
2022/11/26 05:50:24;;;;;;;59.55;47.53;;;;;;;;;;9992158;28;20053;-65
2022/11/26 05:55:19;;;;;;;60.65;49.15;;;;;;;;;;9993954;28;20422;-66
2022/11/26 06:00:14;;;;;;;58.53;46.30;;;;;;;;;;9995828;28;20047;-66
2022/11/26 06:05:09;;;;;;;57.35;47.83;;;;;;;;;;9994729;28;20413;-66
2022/11/26 06:10:03;;;;;;;52.60;45.90;;;;;;;;;;9994370;28;20072;-66
2022/11/26 06:14:56;;;;;;;50.33;44.38;;;;;;;;;;9993895;28;20453;-66
2022/11/26 06:19:51;;;;;;;59.40;46.88;;;;;;;;;;9993433;28;20069;-66
2022/11/26 06:24:44;;;;;;;71.50;49.03;;;;;;;;;;9991981;28;20042;-66
2022/11/26 06:29:39;;;;;;;63.20;48.63;;;;;;;;;;9988480;28;20050;-65
2022/11/26 06:34:33;;;;;;;60.67;48.95;;;;;;;;;;9989289;28;20051;-65
2022/11/26 06:39:28;;;;;;;62.35;50.90;;;;;;;;;;9988820;28;20528;-65
2022/11/26 06:44:21;;;;;;;64.95;51.72;;;;;;;;;;9987644;28;20046;-65
2022/11/26 06:49:16;;;;;;;68.93;55.63;;;;;;;;;;9988614;28;20129;-65
2022/11/26 06:54:10;;;;;;;65.65;51.72;;;;;;;;;;9991405;28;20050;-66
2022/11/26 06:59:04;;;;;;;67.50;53.65;;;;;;;;;;9991185;28;20455;-66
2022/11/26 07:03:57;;;;;;;70.65;55.13;;;;;;;;;;9990663;28;20058;-66
2022/11/26 07:08:51;;;;;;;71.95;51.38;;;;;;;;;;9990800;28;20057;-66
2022/11/26 07:13:45;;;;;;;74.72;56.25;;;;;;;;;;9991027;28;20069;-66
2022/11/26 07:18:39;;;;;;;70.68;53.53;;;;;;;;;;9989714;28;20058;-65
2022/11/26 07:23:33;;;;;;;66.78;52.55;;;;;;;;;;9989719;28;20128;-65
2022/11/26 07:28:28;;;;;;;71.63;52.85;;;;;;;;;;9989525;28;20089;-66
2022/11/26 07:33:23;;;;;;;73.95;55.58;;;;;;;;;;9988995;28;20066;-65
2022/11/26 07:38:17;;;;;;;67.85;53.42;;;;;;;;;;9990373;28;20501;-65
2022/11/26 07:43:11;;;;;;;72.13;54.00;;;;;;;;;;9989582;28;20054;-66
2022/11/26 07:48:05;;;;;;;69.88;52.85;;;;;;;;;;9986676;28;20070;-65
2022/11/26 07:53:04;;;;;;;;;;;;;;;;;;9991081;28;20417;-65
2022/11/26 07:57:58;;;;;;;69.22;54.40;;;;;;;;;;9987359;28;19922;-66
2022/11/26 08:02:52;;;;;;;115.57;86.28;;;;;;;;;;9989894;28;20109;-66
2022/11/26 08:07:45;;;;;;;153.88;102.10;;;;;;;;;;9989411;28;20046;-66
2022/11/26 08:12:39;;;;;;;257.48;156.98;;;;;;;;;;9985630;28;20050;-66
2022/11/26 08:17:33;;;;;;;119.93;89.38;;;;;;;;;;9987686;28;20528;-66
2022/11/26 08:22:29;;;;;;;82.07;63.13;;;;;;;;;;9988767;28;20046;-66
2022/11/26 08:27:22;;;;;;;98.60;73.78;;;;;;;;;;9987162;28;20146;-65
2022/11/26 08:32:16;;;;;;;75.63;59.83;;;;;;;;;;9987303;28;20093;-67
2022/11/26 08:37:10;;;;;;;75.95;56.25;;;;;;;;;;9987035;28;20042;-66
2022/11/26 08:42:05;;;;;;;76.80;60.83;;;;;;;;;;9987864;28;20065;-67
2022/11/26 08:46:59;;;;;;;70.32;51.65;;;;;;;;;;9987660;28;20078;-66
2022/11/26 08:51:55;;;;;;;66.63;49.28;;;;;;;;;;9988984;28;20105;-66
2022/11/26 08:56:49;;;;;;;69.07;53.20;;;;;;;;;;9986907;28;20054;-66
2022/11/26 09:01:43;;;;;;;61.20;50.85;;;;;;;;;;9985857;28;20493;-68
2022/11/26 09:06:39;;;;;;;71.45;49.75;;;;;;;;;;9986472;28;20058;-67
2022/11/26 09:11:36;;;;;;;69.93;48.67;;;;;;;;;;9985383;28;20043;-66
2022/11/26 09:16:30;;;;;;;70.75;51.58;;;;;;;;;;9986452;28;20415;-66
2022/11/26 09:21:24;;;;;;;66.55;49.80;;;;;;;;;;9986025;28;20109;-65
2022/11/26 09:26:20;;;;;;;64.80;48.97;;;;;;;;;;9985904;28;20050;-66
2022/11/26 09:31:14;;;;;;;70.70;49.78;;;;;;;;;;9986736;28;20442;-66
2022/11/26 09:36:10;;;;;;;66.97;50.17;;;;;;;;;;9984811;28;20054;-66
2022/11/26 09:41:18;;;;;;;61.38;47.22;;;;;;;;;;9983422;28;20085;-66
2022/11/26 09:46:13;;;;;;;55.72;42.75;;;;;;;;;;9984546;28;20053;-65
2022/11/26 09:51:11;;;;;;;399.60;223.30;;;;;;;;;;9984309;28;20074;-65
2022/11/26 09:56:09;;;;;;;83.60;65.67;;;;;;;;;;9966959;28;20186;-66
2022/11/26 10:01:04;;;;;;;63.13;49.33;;;;;;;;;;9965834;28;20050;-66
2022/11/26 10:06:21;;;;;;;60.05;48.08;;;;;;;;;;9984940;28;20149;-66
2022/11/26 10:11:21;;;;;;;57.03;50.95;;;;;;;;;;9986247;28;20058;-68
2022/11/26 10:16:17;;;;;;;53.72;44.05;;;;;;;;;;9985335;28;20046;-70
2022/11/26 10:21:26;;;;;;;53.10;41.50;;;;;;;;;;9985896;28;20046;-66
2022/11/26 10:26:39;;;;;;;53.22;41.15;;;;;;;;;;9970613;28;20050;-66
2022/11/26 10:31:34;;;;;;;53.05;40.40;;;;;;;;;;9981607;28;20058;-65
2022/11/26 10:36:53;;;;;;;58.63;39.72;;;;;;;;;;9990249;28;20057;-65
2022/11/26 10:41:48;;;;;;;68.68;59.05;;;;;;;;;;9991134;28;20142;-65
2022/11/26 10:46:41;;;;;;;59.55;48.35;;;;;;;;;;9991255;28;20521;-65
2022/11/26 10:51:36;;;;;;;51.38;39.00;;;;;;;;;;9992652;28;20061;-66
2022/11/26 10:56:41;;;;;;;51.72;38.33;;;;;;;;;;9990788;28;20397;-66
2022/11/26 11:01:39;;;;;;;53.85;40.60;;;;;;;;;;9988692;28;20046;-66
2022/11/26 11:06:42;;;;;;;54.85;41.95;;;;;;;;;;9990358;28;20046;-66
2022/11/26 11:11:36;;;;;;;51.72;39.63;;;;;;;;;;9981231;28;20074;-67
2022/11/26 11:16:40;;;;;;;52.25;40.17;;;;;;;;;;9988182;28;20058;-66
2022/11/26 11:21:37;;;;;;;47.03;38.20;;;;;;;;;;9987806;28;20121;-66
2022/11/26 11:26:41;;;;;;;44.85;34.33;;;;;;;;;;9987879;28;20058;-66
2022/11/26 11:31:44;;;;;;;53.95;37.08;;;;;;;;;;9956667;28;20058;-67
2022/11/26 11:36:38;;;;;;;43.78;33.45;;;;;;;;;;9988668;28;20066;-65
2022/11/26 11:41:45;;;;;;;41.90;30.90;;;;;;;;;;9988480;28;20457;-66
2022/11/26 11:46:58;;;;;;;45.25;36.53;;;;;;;;;;9971023;28;20052;-66
2022/11/26 11:52:06;;;;;;;54.22;39.83;;;;;;;;;;9990503;28;20055;-69
2022/11/26 11:57:23;;;;;;;327.38;231.43;;;;;;;;;;9989913;28;20493;-65
2022/11/26 12:02:35;;;;;;;145.13;103.88;;;;;;;;;;9977345;28;20493;-64
2022/11/26 12:07:40;;;;;;;49.60;39.17;;;;;;;;;;9989031;28;20051;-65
2022/11/26 12:12:46;;;;;;;44.13;33.70;;;;;;;;;;9983090;28;20069;-64
2022/11/26 12:18:02;;;;;;;40.15;29.63;;;;;;;;;;9967327;28;20042;-63
2022/11/26 12:23:24;;;;;;;33.60;28.05;;;;;;;;;;9983722;28;20442;-64
2022/11/26 12:28:22;;;;;;;52.28;43.40;;;;;;;;;;9986996;28;20057;-64
2022/11/26 12:33:16;;;;;;;43.27;37.60;;;;;;;;;;9970852;28;20137;-63
2022/11/26 12:38:22;;;;;;;31.65;24.67;;;;;;;;;;9986668;28;20050;-64
2022/11/26 12:43:21;;;;;;;32.25;24.42;;;;;;;;;;9986781;28;20050;-63
2022/11/26 12:48:33;;;;;;;26.90;22.75;;;;;;;;;;9970230;28;20054;-63
2022/11/26 12:54:03;;;;;;;30.17;20.92;;;;;;;;;;9987829;28;20101;-62
2022/11/26 12:59:29;;;;;;;37.10;27.50;;;;;;;;;;9987082;28;20477;-63
2022/11/26 13:04:25;;;;;;;33.45;25.73;;;;;;;;;;9984991;28;20058;-63
2022/11/26 13:09:29;;;;;;;32.28;24.42;;;;;;;;;;9985436;28;20050;-63
2022/11/26 13:14:43;;;;;;;26.33;21.02;;;;;;;;;;9987235;28;20043;-63
2022/11/26 13:20:18;;;;;;;22.42;17.80;;;;;;;;;;9968709;28;20038;-63
2022/11/26 13:25:23;;;;;;;22.55;18.40;;;;;;;;;;9982673;28;20043;-63
2022/11/26 13:30:18;;;;;;;36.90;29.75;;;;;;;;;;9983980;28;20137;-63
2022/11/26 13:35:45;;;;;;;40.63;32.28;;;;;;;;;;9984792;28;20035;-63
2022/11/26 13:40:50;;;;;;;46.38;36.28;;;;;;;;;;9984811;28;20066;-63
2022/11/26 13:45:49;;;;;;;44.67;36.25;;;;;;;;;;9985235;28;20054;-62
2022/11/26 13:50:58;;;;;;;52.00;40.10;;;;;;;;;;9985374;28;20051;-62
2022/11/26 13:55:56;;;;;;;49.55;39.28;;;;;;;;;;9983038;28;20516;-63
2022/11/26 14:00:50;;;;;;;47.85;37.80;;;;;;;;;;9981044;28;20057;-63
2022/11/26 14:05:49;;;;;;;47.05;37.50;;;;;;;;;;9985864;28;20089;-62
2022/11/26 14:10:43;;;;;;;55.35;39.42;;;;;;;;;;9989351;28;20054;-62
2022/11/26 14:15:41;;;;;;;56.20;39.30;;;;;;;;;;9991923;28;20046;-62
2022/11/26 14:20:56;;;;;;;58.75;39.85;;;;;;;;;;9987898;28;20049;-62
2022/11/26 14:25:51;;;;;;;52.70;38.90;;;;;;;;;;9991344;28;20038;-65
2022/11/26 14:30:45;;;;;;;58.03;39.08;;;;;;;;;;9992005;28;20421;-64
2022/11/26 14:35:42;;;;;;;53.17;39.00;;;;;;;;;;9992434;28;20066;-63
2022/11/26 14:40:37;;;;;;;47.85;35.60;;;;;;;;;;9975195;28;20066;-62
2022/11/26 14:45:31;;;;;;;53.63;37.83;;;;;;;;;;9992039;28;20050;-63
2022/11/26 14:50:25;;;;;;;54.28;38.78;;;;;;;;;;9991116;28;20059;-62
2022/11/26 14:55:24;;;;;;;59.45;40.05;;;;;;;;;;9991768;28;20050;-62
2022/11/26 15:00:28;;;;;;;56.80;39.80;;;;;;;;;;9989168;28;20058;-68
2022/11/26 15:05:26;;;;;;;54.63;38.47;;;;;;;;;;9990679;28;20489;-63
2022/11/26 15:10:21;;;;;;;50.15;37.03;;;;;;;;;;9977689;28;20047;-63
2022/11/26 15:15:19;;;;;;;52.85;38.67;;;;;;;;;;9992101;28;20054;-62
2022/11/26 15:20:15;;;;;;;53.65;39.45;;;;;;;;;;9964783;28;20054;-62
2022/11/26 15:25:15;;;;;;;53.65;41.20;;;;;;;;;;9981955;28;20046;-63
2022/11/26 15:30:19;;;;;;;55.78;41.13;;;;;;;;;;9990696;28;20058;-63
2022/11/26 15:35:14;;;;;;;54.30;38.05;;;;;;;;;;9988395;28;20042;-63
2022/11/26 15:40:09;;;;;;;52.40;40.38;;;;;;;;;;9986748;28;20054;-62
2022/11/26 15:45:05;;;;;;;55.58;40.85;;;;;;;;;;9989270;28;20056;-62
2022/11/26 15:50:00;;;;;;;59.38;43.22;;;;;;;;;;9988961;28;20508;-62
2022/11/26 15:55:01;;;;;;;51.17;40.65;;;;;;;;;;9988419;28;20137;-61
2022/11/26 16:00:19;;;;;;;64.80;48.78;;;;;;;;;;9986161;28;20042;-62
2022/11/26 16:05:30;;;;;;;55.55;43.53;;;;;;;;;;9987437;28;20122;-62
2022/11/26 16:10:30;;;;;;;62.70;43.92;;;;;;;;;;9985879;28;20084;-63
2022/11/26 16:15:25;;;;;;;70.20;56.40;;;;;;;;;;9988847;28;20398;-63
2022/11/26 16:20:20;;;;;;;67.72;50.22;;;;;;;;;;9983319;28;20061;-63
2022/11/26 16:25:42;;;;;;;66.32;45.78;;;;;;;;;;9983828;28;20050;-61
2022/11/26 16:30:36;;;;;;;74.88;54.92;;;;;;;;;;9987257;28;20050;-62
2022/11/26 16:35:30;;;;;;;75.97;53.10;;;;;;;;;;9986109;28;20248;-62
2022/11/26 16:40:39;;;;;;;69.38;49.78;;;;;;;;;;9986255;28;20042;-62
2022/11/26 16:45:33;;;;;;;62.58;46.92;;;;;;;;;;9987973;28;20054;-63
2022/11/26 16:50:27;;;;;;;69.80;48.25;;;;;;;;;;9987293;28;20058;-63
2022/11/26 16:55:24;;;;;;;82.35;58.03;;;;;;;;;;9987039;28;20042;-63
2022/11/26 17:00:20;;;;;;;70.38;50.58;;;;;;;;;;9987941;28;20057;-63
2022/11/26 17:05:15;;;;;;;80.57;59.13;;;;;;;;;;9983166;28;20141;-72
2022/11/26 17:10:31;;;;;;;68.40;49.47;;;;;;;;;;9987442;28;20739;-63
2022/11/26 17:15:26;;;;;;;60.05;45.17;;;;;;;;;;9982538;28;20050;-64
2022/11/26 17:20:26;;;;;;;75.90;60.17;;;;;;;;;;9984846;28;20494;-63
2022/11/26 17:25:20;;;;;;;76.72;58.08;;;;;;;;;;9985280;28;20077;-63
2022/11/26 17:30:36;;;;;;;75.50;56.55;;;;;;;;;;9983550;28;20414;-63
2022/11/26 17:35:30;;;;;;;85.72;61.00;;;;;;;;;;9980977;28;20047;-63
2022/11/26 17:40:25;;;;;;;79.45;57.72;;;;;;;;;;9983116;28;20065;-63
2022/11/26 17:45:20;;;;;;;70.80;49.95;;;;;;;;;;9991933;28;20042;-63
2022/11/26 17:50:20;;;;;;;60.60;41.67;;;;;;;;;;9993527;28;20106;-62
2022/11/26 17:55:15;;;;;;;52.47;40.55;;;;;;;;;;9992762;28;20054;-63
2022/11/26 18:00:13;;;;;;;74.07;58.10;;;;;;;;;;9988956;28;20057;-64
2022/11/26 18:05:07;;;;;;;74.18;56.10;;;;;;;;;;9993252;28;20038;-64
2022/11/26 18:10:00;;;;;;;78.78;55.67;;;;;;;;;;9989318;28;20117;-63
2022/11/26 18:14:56;;;;;;;80.63;61.17;;;;;;;;;;9990977;28;20053;-63
2022/11/26 18:19:49;;;;;;;90.90;66.85;;;;;;;;;;9989374;28;20030;-67
2022/11/26 18:24:51;;;;;;;81.90;58.75;;;;;;;;;;9993012;28;20129;-63
2022/11/26 18:29:49;;;;;;;78.10;62.50;;;;;;;;;;9993993;28;20102;-63
2022/11/26 18:34:43;;;;;;;86.63;62.88;;;;;;;;;;9992796;28;20054;-63
2022/11/26 18:39:37;;;;;;;78.97;61.08;;;;;;;;;;9993182;28;20098;-64
2022/11/26 18:44:31;;;;;;;74.35;56.13;;;;;;;;;;9993338;28;20105;-63
2022/11/26 18:49:25;;;;;;;66.05;49.53;;;;;;;;;;9992294;28;20557;-63
2022/11/26 18:54:19;;;;;;;58.95;44.75;;;;;;;;;;9991763;28;20050;-63
2022/11/26 18:59:13;;;;;;;61.85;44.10;;;;;;;;;;9992048;28;20046;-62
2022/11/26 19:04:07;;;;;;;60.17;43.67;;;;;;;;;;9991292;28;20038;-63
2022/11/26 19:09:03;;;;;;;56.45;42.20;;;;;;;;;;9992620;28;20129;-63
2022/11/26 19:13:58;;;;;;;53.17;37.22;;;;;;;;;;9983636;28;20057;-66
2022/11/26 19:18:53;;;;;;;50.90;36.80;;;;;;;;;;9991924;28;20120;-64
2022/11/26 19:23:47;;;;;;;47.63;38.95;;;;;;;;;;9990698;28;20052;-63
2022/11/26 19:28:40;;;;;;;50.90;37.63;;;;;;;;;;9991412;28;20050;-63
2022/11/26 19:33:35;;;;;;;46.92;37.30;;;;;;;;;;9991275;28;20461;-62
2022/11/26 19:38:28;;;;;;;57.45;40.08;;;;;;;;;;9989197;28;20459;-62
2022/11/26 19:43:23;;;;;;;57.65;41.60;;;;;;;;;;9987380;28;20092;-64
2022/11/26 19:48:17;;;;;;;80.82;54.13;;;;;;;;;;9986509;28;20061;-63
2022/11/26 19:53:10;;;;;;;108.70;70.57;;;;;;;;;;9970186;28;20050;-64
2022/11/26 19:58:04;;;;;;;117.28;81.75;;;;;;;;;;9986706;28;20141;-63
2022/11/26 20:02:59;;;;;;;82.05;58.47;;;;;;;;;;9984821;28;20104;-63
2022/11/26 20:07:53;;;;;;;75.55;57.47;;;;;;;;;;9982896;28;20494;-62
2022/11/26 20:12:47;;;;;;;72.22;54.20;;;;;;;;;;9986042;28;20042;-62
2022/11/26 20:17:41;;;;;;;83.95;64.22;;;;;;;;;;9988280;28;20052;-63
2022/11/26 20:22:36;;;;;;;65.75;52.00;;;;;;;;;;9988124;28;20061;-62
2022/11/26 20:27:30;;;;;;;66.10;53.60;;;;;;;;;;9987125;28;20129;-62
2022/11/26 20:32:24;;;;;;;58.03;46.20;;;;;;;;;;9985829;28;20457;-61
2022/11/26 20:37:18;;;;;;;60.40;45.80;;;;;;;;;;9986976;28;20070;-63
2022/11/26 20:42:13;;;;;;;56.72;40.60;;;;;;;;;;9987933;28;20134;-63
2022/11/26 20:47:07;;;;;;;51.58;37.22;;;;;;;;;;9988450;28;20047;-63
2022/11/26 20:52:01;;;;;;;46.85;34.97;;;;;;;;;;9987055;28;20050;-62
2022/11/26 20:56:55;;;;;;;43.88;33.38;;;;;;;;;;9987806;28;20062;-63
2022/11/26 21:01:50;;;;;;;48.85;36.42;;;;;;;;;;9987664;28;20486;-63
2022/11/26 21:06:45;;;;;;;54.50;39.45;;;;;;;;;;9987603;28;20138;-63
2022/11/26 21:11:39;;;;;;;60.90;44.08;;;;;;;;;;9987304;28;20088;-62
2022/11/26 21:16:33;;;;;;;68.57;47.85;;;;;;;;;;9986361;28;20043;-63
2022/11/26 21:21:28;;;;;;;45.08;34.15;;;;;;;;;;9983909;28;20501;-63
2022/11/26 21:26:24;;;;;;;44.35;35.33;;;;;;;;;;9986740;28;20047;-62
2022/11/26 21:31:18;;;;;;;60.05;44.78;;;;;;;;;;9986277;28;20066;-63
2022/11/26 21:36:14;;;;;;;59.72;42.97;;;;;;;;;;9985480;28;20564;-63
2022/11/26 21:41:11;;;;;;;47.45;36.40;;;;;;;;;;9969633;28;20056;-63
2022/11/26 21:46:06;;;;;;;49.00;38.88;;;;;;;;;;9986824;28;20090;-63
2022/11/26 21:51:06;;;;;;;44.20;34.53;;;;;;;;;;9986742;28;20053;-63
2022/11/26 21:56:12;;;;;;;49.63;34.17;;;;;;;;;;9984703;28;20409;-65
2022/11/26 22:01:10;;;;;;;50.03;37.70;;;;;;;;;;9985479;28;20410;-63
2022/11/26 22:06:05;;;;;;;46.83;35.03;;;;;;;;;;9985614;28;20047;-63
2022/11/26 22:10:58;;;;;;;51.53;40.13;;;;;;;;;;9985686;28;20497;-63
2022/11/26 22:15:53;;;;;;;48.30;34.35;;;;;;;;;;9985979;28;20077;-63
2022/11/26 22:20:51;;;;;;;44.65;35.03;;;;;;;;;;9986135;28;20057;-63
2022/11/26 22:25:46;;;;;;;45.97;33.85;;;;;;;;;;9984317;28;20049;-63
2022/11/26 22:30:39;;;;;;;39.97;30.60;;;;;;;;;;9988473;28;20117;-63
2022/11/26 22:35:34;;;;;;;42.60;30.73;;;;;;;;;;9989507;28;20050;-62
2022/11/26 22:40:27;;;;;;;44.40;33.38;;;;;;;;;;9991383;28;20081;-63
2022/11/26 22:45:25;;;;;;;46.58;37.08;;;;;;;;;;9987600;28;20414;-62
2022/11/26 22:50:18;;;;;;;47.63;35.70;;;;;;;;;;9989505;28;20093;-62
2022/11/26 22:55:12;;;;;;;36.67;28.67;;;;;;;;;;9991981;28;20043;-62
2022/11/26 23:00:12;;;;;;;32.58;26.35;;;;;;;;;;9989494;28;20050;-62
2022/11/26 23:05:08;;;;;;;30.55;25.85;;;;;;;;;;9988104;28;20492;-63
2022/11/26 23:10:03;;;;;;;29.58;24.13;;;;;;;;;;9987187;28;20137;-63
2022/11/26 23:14:56;;;;;;;29.35;22.95;;;;;;;;;;9988986;28;20125;-62
2022/11/26 23:19:50;;;;;;;28.08;21.30;;;;;;;;;;9989853;28;20062;-62
2022/11/26 23:24:44;;;;;;;29.10;22.67;;;;;;;;;;9990369;28;20050;-62
2022/11/26 23:29:38;;;;;;;32.78;22.90;;;;;;;;;;9991328;28;20065;-62
2022/11/26 23:34:34;;;;;;;33.47;26.13;;;;;;;;;;9988061;28;20425;-63
2022/11/26 23:39:29;;;;;;;32.00;23.60;;;;;;;;;;9988896;28;20104;-63
2022/11/26 23:44:23;;;;;;;33.80;22.98;;;;;;;;;;9988941;28;20486;-62
2022/11/26 23:49:17;;;;;;;28.83;22.98;;;;;;;;;;9989288;28;20093;-63
2022/11/26 23:54:11;;;;;;;28.38;22.42;;;;;;;;;;9989131;28;20105;-63
2022/11/26 23:59:04;;;;;;;27.92;21.58;;;;;;;;;;9988301;28;20084;-63
